sensor_id;sensor_type;location;lat;lon;timestamp;P1;durP1;ratioP1;P2;durP2;ratioP2
63320;SDS011;49449;48.800;9.534;2022-12-18T00:01:59;38.67;;;23.48;;
63320;SDS011;49449;48.800;9.534;2022-12-18T00:04:27;42.75;;;24.60;;
63320;SDS011;49449;48.800;9.534;2022-12-18T00:06:55;38.67;;;24.55;;
63320;SDS011;49449;48.800;9.534;2022-12-18T00:09:22;43.05;;;25.42;;
63320;SDS011;49449;48.800;9.534;2022-12-18T00:11:51;39.08;;;22.88;;
63320;SDS011;49449;48.800;9.534;2022-12-18T00:14:20;40.13;;;26.13;;
63320;SDS011;49449;48.800;9.534;2022-12-18T00:16:48;40.35;;;24.60;;
63320;SDS011;49449;48.800;9.534;2022-12-18T00:19:15;44.63;;;25.17;;
63320;SDS011;49449;48.800;9.534;2022-12-18T00:21:43;41.05;;;23.63;;
63320;SDS011;49449;48.800;9.534;2022-12-18T00:24:11;43.17;;;24.45;;
63320;SDS011;49449;48.800;9.534;2022-12-18T00:26:39;39.67;;;23.38;;
63320;SDS011;49449;48.800;9.534;2022-12-18T00:29:09;38.67;;;22.27;;
63320;SDS011;49449;48.800;9.534;2022-12-18T00:31:41;30.33;;;19.92;;
63320;SDS011;49449;48.800;9.534;2022-12-18T00:34:09;33.45;;;20.60;;
63320;SDS011;49449;48.800;9.534;2022-12-18T00:36:39;32.58;;;20.65;;
63320;SDS011;49449;48.800;9.534;2022-12-18T00:39:07;38.35;;;21.77;;
63320;SDS011;49449;48.800;9.534;2022-12-18T00:41:36;34.50;;;20.55;;
63320;SDS011;49449;48.800;9.534;2022-12-18T00:44:22;29.45;;;19.92;;
63320;SDS011;49449;48.800;9.534;2022-12-18T00:46:51;36.17;;;20.67;;
63320;SDS011;49449;48.800;9.534;2022-12-18T00:49:18;33.55;;;19.08;;
63320;SDS011;49449;48.800;9.534;2022-12-18T00:51:47;38.30;;;21.08;;
63320;SDS011;49449;48.800;9.534;2022-12-18T00:54:15;36.80;;;23.17;;
63320;SDS011;49449;48.800;9.534;2022-12-18T00:59:24;40.38;;;23.75;;
63320;SDS011;49449;48.800;9.534;2022-12-18T01:05:29;40.80;;;24.25;;
63320;SDS011;49449;48.800;9.534;2022-12-18T01:08:57;40.75;;;22.73;;
63320;SDS011;49449;48.800;9.534;2022-12-18T01:17:24;40.63;;;22.70;;
63320;SDS011;49449;48.800;9.534;2022-12-18T01:21:25;33.30;;;20.77;;
63320;SDS011;49449;48.800;9.534;2022-12-18T01:23:55;35.08;;;21.67;;
63320;SDS011;49449;48.800;9.534;2022-12-18T01:26:25;32.33;;;19.98;;
63320;SDS011;49449;48.800;9.534;2022-12-18T01:28:56;40.15;;;23.42;;
63320;SDS011;49449;48.800;9.534;2022-12-18T01:31:25;35.30;;;21.90;;
63320;SDS011;49449;48.800;9.534;2022-12-18T01:33:55;38.70;;;23.55;;
63320;SDS011;49449;48.800;9.534;2022-12-18T01:36:24;33.83;;;21.85;;
63320;SDS011;49449;48.800;9.534;2022-12-18T01:38:54;34.00;;;20.73;;
63320;SDS011;49449;48.800;9.534;2022-12-18T01:41:23;35.63;;;22.70;;
63320;SDS011;49449;48.800;9.534;2022-12-18T01:43:53;37.58;;;22.67;;
63320;SDS011;49449;48.800;9.534;2022-12-18T01:46:24;33.50;;;19.27;;
63320;SDS011;49449;48.800;9.534;2022-12-18T01:48:55;38.17;;;23.42;;
63320;SDS011;49449;48.800;9.534;2022-12-18T01:51:26;37.38;;;23.38;;
63320;SDS011;49449;48.800;9.534;2022-12-18T01:53:54;41.20;;;22.55;;
63320;SDS011;49449;48.800;9.534;2022-12-18T01:56:22;41.38;;;23.73;;
63320;SDS011;49449;48.800;9.534;2022-12-18T01:58:52;37.67;;;22.83;;
63320;SDS011;49449;48.800;9.534;2022-12-18T02:01:24;35.83;;;23.33;;
63320;SDS011;49449;48.800;9.534;2022-12-18T02:03:52;40.70;;;22.52;;
63320;SDS011;49449;48.800;9.534;2022-12-18T02:06:20;36.85;;;21.23;;
63320;SDS011;49449;48.800;9.534;2022-12-18T02:08:58;30.95;;;18.30;;
63320;SDS011;49449;48.800;9.534;2022-12-18T02:11:39;34.75;;;20.52;;
63320;SDS011;49449;48.800;9.534;2022-12-18T02:14:16;33.40;;;19.75;;
63320;SDS011;49449;48.800;9.534;2022-12-18T02:16:51;39.15;;;21.05;;
63320;SDS011;49449;48.800;9.534;2022-12-18T02:19:29;31.92;;;19.40;;
63320;SDS011;49449;48.800;9.534;2022-12-18T02:22:12;34.08;;;20.13;;
63320;SDS011;49449;48.800;9.534;2022-12-18T02:24:54;33.40;;;21.30;;
63320;SDS011;49449;48.800;9.534;2022-12-18T02:27:37;31.65;;;18.38;;
63320;SDS011;49449;48.800;9.534;2022-12-18T02:30:07;28.05;;;17.73;;
63320;SDS011;49449;48.800;9.534;2022-12-18T02:32:37;32.30;;;18.67;;
63320;SDS011;49449;48.800;9.534;2022-12-18T02:35:13;27.50;;;15.65;;
63320;SDS011;49449;48.800;9.534;2022-12-18T02:37:43;30.63;;;18.70;;
63320;SDS011;49449;48.800;9.534;2022-12-18T02:40:14;32.45;;;18.55;;
63320;SDS011;49449;48.800;9.534;2022-12-18T02:42:45;29.85;;;17.50;;
63320;SDS011;49449;48.800;9.534;2022-12-18T02:45:13;33.63;;;17.73;;
63320;SDS011;49449;48.800;9.534;2022-12-18T02:47:41;29.33;;;17.90;;
63320;SDS011;49449;48.800;9.534;2022-12-18T02:50:13;27.65;;;17.10;;
63320;SDS011;49449;48.800;9.534;2022-12-18T02:52:51;30.17;;;18.83;;
63320;SDS011;49449;48.800;9.534;2022-12-18T02:55:27;31.48;;;17.25;;
63320;SDS011;49449;48.800;9.534;2022-12-18T02:58:05;27.65;;;17.02;;
63320;SDS011;49449;48.800;9.534;2022-12-18T03:00:40;28.88;;;16.50;;
63320;SDS011;49449;48.800;9.534;2022-12-18T03:05:43;22.48;;;13.85;;
63320;SDS011;49449;48.800;9.534;2022-12-18T03:08:18;27.83;;;16.15;;
63320;SDS011;49449;48.800;9.534;2022-12-18T03:10:49;27.38;;;16.48;;
63320;SDS011;49449;48.800;9.534;2022-12-18T03:13:23;27.33;;;16.25;;
63320;SDS011;49449;48.800;9.534;2022-12-18T03:15:55;23.80;;;16.35;;
63320;SDS011;49449;48.800;9.534;2022-12-18T03:18:26;24.80;;;16.90;;
63320;SDS011;49449;48.800;9.534;2022-12-18T03:20:58;24.05;;;14.98;;
63320;SDS011;49449;48.800;9.534;2022-12-18T03:23:30;26.38;;;16.13;;
63320;SDS011;49449;48.800;9.534;2022-12-18T03:26:05;28.55;;;17.23;;
63320;SDS011;49449;48.800;9.534;2022-12-18T03:28:38;27.05;;;15.70;;
63320;SDS011;49449;48.800;9.534;2022-12-18T03:31:10;29.98;;;15.77;;
63320;SDS011;49449;48.800;9.534;2022-12-18T03:33:41;26.40;;;15.82;;
63320;SDS011;49449;48.800;9.534;2022-12-18T03:36:13;27.63;;;16.95;;
63320;SDS011;49449;48.800;9.534;2022-12-18T03:38:42;25.42;;;14.52;;
63320;SDS011;49449;48.800;9.534;2022-12-18T03:41:12;27.23;;;16.52;;
63320;SDS011;49449;48.800;9.534;2022-12-18T03:43:48;30.25;;;16.27;;
63320;SDS011;49449;48.800;9.534;2022-12-18T03:46:23;25.65;;;15.80;;
63320;SDS011;49449;48.800;9.534;2022-12-18T03:48:56;28.65;;;16.67;;
63320;SDS011;49449;48.800;9.534;2022-12-18T03:51:34;27.75;;;15.55;;
63320;SDS011;49449;48.800;9.534;2022-12-18T03:54:07;22.73;;;14.23;;
63320;SDS011;49449;48.800;9.534;2022-12-18T03:56:38;26.17;;;15.05;;
63320;SDS011;49449;48.800;9.534;2022-12-18T03:59:10;27.90;;;16.52;;
63320;SDS011;49449;48.800;9.534;2022-12-18T04:01:42;23.90;;;15.07;;
63320;SDS011;49449;48.800;9.534;2022-12-18T04:04:14;24.88;;;14.90;;
63320;SDS011;49449;48.800;9.534;2022-12-18T04:06:44;25.92;;;15.68;;
63320;SDS011;49449;48.800;9.534;2022-12-18T04:09:14;24.45;;;13.88;;
63320;SDS011;49449;48.800;9.534;2022-12-18T04:11:41;28.08;;;15.25;;
63320;SDS011;49449;48.800;9.534;2022-12-18T04:14:12;24.65;;;15.40;;
63320;SDS011;49449;48.800;9.534;2022-12-18T04:19:10;25.65;;;14.20;;
63320;SDS011;49449;48.800;9.534;2022-12-18T04:21:38;24.83;;;15.43;;
63320;SDS011;49449;48.800;9.534;2022-12-18T04:24:06;26.42;;;15.05;;
63320;SDS011;49449;48.800;9.534;2022-12-18T04:26:34;26.00;;;15.82;;
63320;SDS011;49449;48.800;9.534;2022-12-18T04:29:01;28.75;;;15.95;;
63320;SDS011;49449;48.800;9.534;2022-12-18T04:31:31;25.73;;;14.65;;
63320;SDS011;49449;48.800;9.534;2022-12-18T04:33:59;25.23;;;14.55;;
63320;SDS011;49449;48.800;9.534;2022-12-18T04:36:26;24.02;;;14.63;;
63320;SDS011;49449;48.800;9.534;2022-12-18T04:38:54;24.50;;;14.73;;
63320;SDS011;49449;48.800;9.534;2022-12-18T04:41:22;24.40;;;13.85;;
63320;SDS011;49449;48.800;9.534;2022-12-18T04:43:50;24.40;;;14.75;;
63320;SDS011;49449;48.800;9.534;2022-12-18T04:46:17;25.52;;;15.98;;
63320;SDS011;49449;48.800;9.534;2022-12-18T04:48:46;24.80;;;14.90;;
63320;SDS011;49449;48.800;9.534;2022-12-18T04:51:14;27.02;;;16.48;;
63320;SDS011;49449;48.800;9.534;2022-12-18T04:53:42;26.77;;;14.65;;
63320;SDS011;49449;48.800;9.534;2022-12-18T04:56:10;24.85;;;14.60;;
63320;SDS011;49449;48.800;9.534;2022-12-18T04:58:43;27.65;;;16.52;;
63320;SDS011;49449;48.800;9.534;2022-12-18T05:01:12;25.08;;;14.77;;
63320;SDS011;49449;48.800;9.534;2022-12-18T05:03:41;27.75;;;16.45;;
63320;SDS011;49449;48.800;9.534;2022-12-18T05:06:11;29.73;;;17.15;;
63320;SDS011;49449;48.800;9.534;2022-12-18T05:08:38;24.10;;;14.90;;
63320;SDS011;49449;48.800;9.534;2022-12-18T05:11:07;24.85;;;15.57;;
63320;SDS011;49449;48.800;9.534;2022-12-18T05:13:36;24.67;;;14.85;;
63320;SDS011;49449;48.800;9.534;2022-12-18T05:16:05;24.27;;;14.95;;
63320;SDS011;49449;48.800;9.534;2022-12-18T05:18:34;25.60;;;14.90;;
63320;SDS011;49449;48.800;9.534;2022-12-18T05:21:02;27.77;;;16.80;;
63320;SDS011;49449;48.800;9.534;2022-12-18T05:23:31;25.67;;;15.50;;
63320;SDS011;49449;48.800;9.534;2022-12-18T05:26:03;25.35;;;14.73;;
63320;SDS011;49449;48.800;9.534;2022-12-18T05:28:34;25.85;;;15.73;;
63320;SDS011;49449;48.800;9.534;2022-12-18T05:31:03;27.67;;;15.90;;
63320;SDS011;49449;48.800;9.534;2022-12-18T05:33:32;24.55;;;14.90;;
63320;SDS011;49449;48.800;9.534;2022-12-18T05:36:02;28.90;;;14.55;;
63320;SDS011;49449;48.800;9.534;2022-12-18T05:38:33;25.88;;;14.95;;
63320;SDS011;49449;48.800;9.534;2022-12-18T05:41:02;23.33;;;14.02;;
63320;SDS011;49449;48.800;9.534;2022-12-18T05:43:30;26.50;;;16.10;;
63320;SDS011;49449;48.800;9.534;2022-12-18T05:46:02;27.48;;;17.35;;
63320;SDS011;49449;48.800;9.534;2022-12-18T05:48:31;30.00;;;16.17;;
63320;SDS011;49449;48.800;9.534;2022-12-18T05:51:03;27.75;;;16.48;;
63320;SDS011;49449;48.800;9.534;2022-12-18T05:53:33;27.58;;;15.35;;
63320;SDS011;49449;48.800;9.534;2022-12-18T05:56:01;26.77;;;16.10;;
63320;SDS011;49449;48.800;9.534;2022-12-18T05:58:29;26.17;;;14.68;;
63320;SDS011;49449;48.800;9.534;2022-12-18T06:00:57;23.67;;;14.00;;
63320;SDS011;49449;48.800;9.534;2022-12-18T06:03:32;26.42;;;15.48;;
63320;SDS011;49449;48.800;9.534;2022-12-18T06:06:00;26.45;;;15.27;;
63320;SDS011;49449;48.800;9.534;2022-12-18T06:08:28;24.60;;;14.15;;
63320;SDS011;49449;48.800;9.534;2022-12-18T06:10:57;25.25;;;14.02;;
63320;SDS011;49449;48.800;9.534;2022-12-18T06:13:24;27.38;;;15.00;;
63320;SDS011;49449;48.800;9.534;2022-12-18T06:15:52;26.20;;;15.27;;
63320;SDS011;49449;48.800;9.534;2022-12-18T06:18:20;22.08;;;13.82;;
63320;SDS011;49449;48.800;9.534;2022-12-18T06:20:53;23.63;;;14.48;;
63320;SDS011;49449;48.800;9.534;2022-12-18T06:23:22;28.30;;;16.52;;
63320;SDS011;49449;48.800;9.534;2022-12-18T06:25:49;25.08;;;14.95;;
63320;SDS011;49449;48.800;9.534;2022-12-18T06:28:18;25.50;;;15.23;;
63320;SDS011;49449;48.800;9.534;2022-12-18T06:30:47;24.42;;;14.65;;
63320;SDS011;49449;48.800;9.534;2022-12-18T06:33:15;26.45;;;15.30;;
63320;SDS011;49449;48.800;9.534;2022-12-18T06:35:43;28.30;;;15.52;;
63320;SDS011;49449;48.800;9.534;2022-12-18T06:38:11;23.77;;;13.48;;
63320;SDS011;49449;48.800;9.534;2022-12-18T06:40:38;27.75;;;16.40;;
63320;SDS011;49449;48.800;9.534;2022-12-18T06:43:06;26.95;;;15.63;;
63320;SDS011;49449;48.800;9.534;2022-12-18T06:45:35;28.77;;;15.82;;
63320;SDS011;49449;48.800;9.534;2022-12-18T06:48:03;22.40;;;14.25;;
63320;SDS011;49449;48.800;9.534;2022-12-18T06:50:31;23.48;;;13.98;;
63320;SDS011;49449;48.800;9.534;2022-12-18T06:52:58;22.92;;;13.63;;
63320;SDS011;49449;48.800;9.534;2022-12-18T06:55:27;31.77;;;17.75;;
63320;SDS011;49449;48.800;9.534;2022-12-18T06:57:54;30.02;;;17.58;;
63320;SDS011;49449;48.800;9.534;2022-12-18T07:00:22;28.23;;;15.55;;
63320;SDS011;49449;48.800;9.534;2022-12-18T07:02:51;30.15;;;15.95;;
63320;SDS011;49449;48.800;9.534;2022-12-18T07:05:19;26.45;;;15.20;;
63320;SDS011;49449;48.800;9.534;2022-12-18T07:07:46;27.27;;;15.95;;
63320;SDS011;49449;48.800;9.534;2022-12-18T07:10:14;20.95;;;12.23;;
63320;SDS011;49449;48.800;9.534;2022-12-18T07:12:42;25.40;;;13.55;;
63320;SDS011;49449;48.800;9.534;2022-12-18T07:15:10;23.88;;;14.63;;
63320;SDS011;49449;48.800;9.534;2022-12-18T07:17:37;26.90;;;17.13;;
63320;SDS011;49449;48.800;9.534;2022-12-18T07:20:07;26.27;;;14.70;;
63320;SDS011;49449;48.800;9.534;2022-12-18T07:22:36;29.33;;;16.42;;
63320;SDS011;49449;48.800;9.534;2022-12-18T07:25:04;25.10;;;15.07;;
63320;SDS011;49449;48.800;9.534;2022-12-18T07:27:33;23.17;;;14.88;;
63320;SDS011;49449;48.800;9.534;2022-12-18T07:30:01;24.67;;;14.95;;
63320;SDS011;49449;48.800;9.534;2022-12-18T07:32:29;29.35;;;17.00;;
63320;SDS011;49449;48.800;9.534;2022-12-18T07:34:57;25.92;;;16.90;;
63320;SDS011;49449;48.800;9.534;2022-12-18T07:37:26;30.33;;;16.40;;
63320;SDS011;49449;48.800;9.534;2022-12-18T07:39:54;24.40;;;14.57;;
63320;SDS011;49449;48.800;9.534;2022-12-18T07:42:22;26.42;;;15.35;;
63320;SDS011;49449;48.800;9.534;2022-12-18T07:44:58;28.23;;;16.48;;
63320;SDS011;49449;48.800;9.534;2022-12-18T07:47:27;26.05;;;14.48;;
63320;SDS011;49449;48.800;9.534;2022-12-18T07:49:57;29.20;;;15.93;;
63320;SDS011;49449;48.800;9.534;2022-12-18T07:52:27;25.55;;;15.07;;
63320;SDS011;49449;48.800;9.534;2022-12-18T07:54:54;26.02;;;16.60;;
63320;SDS011;49449;48.800;9.534;2022-12-18T07:57:22;31.95;;;16.52;;
63320;SDS011;49449;48.800;9.534;2022-12-18T08:00:10;29.92;;;17.42;;
63320;SDS011;49449;48.800;9.534;2022-12-18T08:02:39;31.27;;;16.23;;
63320;SDS011;49449;48.800;9.534;2022-12-18T08:05:07;30.73;;;17.27;;
63320;SDS011;49449;48.800;9.534;2022-12-18T08:07:37;30.55;;;17.30;;
63320;SDS011;49449;48.800;9.534;2022-12-18T08:10:05;29.50;;;16.25;;
63320;SDS011;49449;48.800;9.534;2022-12-18T08:12:33;35.28;;;17.42;;
63320;SDS011;49449;48.800;9.534;2022-12-18T08:15:01;34.03;;;17.90;;
63320;SDS011;49449;48.800;9.534;2022-12-18T08:17:29;32.00;;;16.70;;
63320;SDS011;49449;48.800;9.534;2022-12-18T08:19:57;27.42;;;15.98;;
63320;SDS011;49449;48.800;9.534;2022-12-18T08:22:25;29.80;;;16.80;;
63320;SDS011;49449;48.800;9.534;2022-12-18T08:24:54;28.30;;;14.95;;
63320;SDS011;49449;48.800;9.534;2022-12-18T08:27:21;36.60;;;19.83;;
63320;SDS011;49449;48.800;9.534;2022-12-18T08:29:56;31.15;;;17.00;;
63320;SDS011;49449;48.800;9.534;2022-12-18T08:32:24;31.33;;;16.05;;
63320;SDS011;49449;48.800;9.534;2022-12-18T08:34:53;34.10;;;20.13;;
63320;SDS011;49449;48.800;9.534;2022-12-18T08:37:20;31.35;;;16.92;;
63320;SDS011;49449;48.800;9.534;2022-12-18T08:39:48;31.67;;;17.27;;
63320;SDS011;49449;48.800;9.534;2022-12-18T08:42:18;35.42;;;17.58;;
63320;SDS011;49449;48.800;9.534;2022-12-18T08:45:04;33.65;;;18.20;;
63320;SDS011;49449;48.800;9.534;2022-12-18T08:47:32;35.72;;;18.10;;
63320;SDS011;49449;48.800;9.534;2022-12-18T08:49:59;35.22;;;19.42;;
63320;SDS011;49449;48.800;9.534;2022-12-18T08:52:27;33.92;;;17.13;;
63320;SDS011;49449;48.800;9.534;2022-12-18T08:54:55;29.75;;;16.73;;
63320;SDS011;49449;48.800;9.534;2022-12-18T08:57:24;33.33;;;18.30;;
63320;SDS011;49449;48.800;9.534;2022-12-18T08:59:52;31.52;;;18.42;;
63320;SDS011;49449;48.800;9.534;2022-12-18T09:02:19;31.63;;;17.88;;
63320;SDS011;49449;48.800;9.534;2022-12-18T09:04:47;31.92;;;17.35;;
63320;SDS011;49449;48.800;9.534;2022-12-18T09:07:19;29.27;;;15.77;;
63320;SDS011;49449;48.800;9.534;2022-12-18T09:09:46;25.58;;;14.23;;
63320;SDS011;49449;48.800;9.534;2022-12-18T09:12:14;26.73;;;15.95;;
63320;SDS011;49449;48.800;9.534;2022-12-18T09:14:43;30.25;;;17.33;;
63320;SDS011;49449;48.800;9.534;2022-12-18T09:17:11;29.45;;;17.02;;
63320;SDS011;49449;48.800;9.534;2022-12-18T09:19:38;29.73;;;16.48;;
63320;SDS011;49449;48.800;9.534;2022-12-18T09:22:06;30.73;;;18.13;;
63320;SDS011;49449;48.800;9.534;2022-12-18T09:24:34;33.78;;;17.80;;
63320;SDS011;49449;48.800;9.534;2022-12-18T09:27:01;26.98;;;17.25;;
63320;SDS011;49449;48.800;9.534;2022-12-18T09:29:29;28.02;;;17.13;;
63320;SDS011;49449;48.800;9.534;2022-12-18T09:31:59;26.60;;;15.02;;
63320;SDS011;49449;48.800;9.534;2022-12-18T09:34:26;26.25;;;15.82;;
63320;SDS011;49449;48.800;9.534;2022-12-18T09:36:54;29.15;;;17.05;;
63320;SDS011;49449;48.800;9.534;2022-12-18T09:39:22;27.70;;;15.60;;
63320;SDS011;49449;48.800;9.534;2022-12-18T09:41:50;28.85;;;16.50;;
63320;SDS011;49449;48.800;9.534;2022-12-18T09:44:22;29.33;;;16.38;;
63320;SDS011;49449;48.800;9.534;2022-12-18T09:46:54;27.02;;;16.13;;
63320;SDS011;49449;48.800;9.534;2022-12-18T09:49:38;26.80;;;14.32;;
63320;SDS011;49449;48.800;9.534;2022-12-18T09:52:09;26.92;;;15.65;;
63320;SDS011;49449;48.800;9.534;2022-12-18T09:54:43;28.33;;;15.27;;
63320;SDS011;49449;48.800;9.534;2022-12-18T09:57:15;26.35;;;15.60;;
63320;SDS011;49449;48.800;9.534;2022-12-18T09:59:46;24.13;;;13.63;;
63320;SDS011;49449;48.800;9.534;2022-12-18T10:02:19;25.33;;;14.32;;
63320;SDS011;49449;48.800;9.534;2022-12-18T10:07:22;25.23;;;15.30;;
63320;SDS011;49449;48.800;9.534;2022-12-18T10:09:58;25.92;;;15.40;;
63320;SDS011;49449;48.800;9.534;2022-12-18T10:12:36;25.48;;;14.85;;
63320;SDS011;49449;48.800;9.534;2022-12-18T10:15:11;25.58;;;15.15;;
63320;SDS011;49449;48.800;9.534;2022-12-18T10:17:45;24.67;;;14.18;;
63320;SDS011;49449;48.800;9.534;2022-12-18T10:20:23;25.75;;;15.48;;
63320;SDS011;49449;48.800;9.534;2022-12-18T10:22:57;27.80;;;15.63;;
63320;SDS011;49449;48.800;9.534;2022-12-18T10:25:31;27.50;;;15.23;;
63320;SDS011;49449;48.800;9.534;2022-12-18T10:28:07;24.83;;;16.17;;
63320;SDS011;49449;48.800;9.534;2022-12-18T10:30:39;28.02;;;16.30;;
63320;SDS011;49449;48.800;9.534;2022-12-18T10:33:10;27.10;;;16.92;;
63320;SDS011;49449;48.800;9.534;2022-12-18T10:35:42;27.70;;;15.10;;
63320;SDS011;49449;48.800;9.534;2022-12-18T10:38:23;28.27;;;17.35;;
63320;SDS011;49449;48.800;9.534;2022-12-18T10:40:54;28.88;;;17.17;;
63320;SDS011;49449;48.800;9.534;2022-12-18T10:43:24;29.23;;;16.15;;
63320;SDS011;49449;48.800;9.534;2022-12-18T10:46:01;37.55;;;23.35;;
63320;SDS011;49449;48.800;9.534;2022-12-18T10:48:34;31.08;;;16.88;;
63320;SDS011;49449;48.800;9.534;2022-12-18T10:51:07;31.35;;;17.85;;
63320;SDS011;49449;48.800;9.534;2022-12-18T10:53:36;29.52;;;16.52;;
63320;SDS011;49449;48.800;9.534;2022-12-18T10:56:05;37.53;;;20.60;;
63320;SDS011;49449;48.800;9.534;2022-12-18T10:58:35;28.55;;;16.00;;
63320;SDS011;49449;48.800;9.534;2022-12-18T11:01:06;32.25;;;18.83;;
63320;SDS011;49449;48.800;9.534;2022-12-18T11:03:37;31.05;;;17.63;;
63320;SDS011;49449;48.800;9.534;2022-12-18T11:06:08;43.03;;;23.52;;
63320;SDS011;49449;48.800;9.534;2022-12-18T11:08:37;31.02;;;16.55;;
63320;SDS011;49449;48.800;9.534;2022-12-18T11:11:07;28.48;;;15.77;;
63320;SDS011;49449;48.800;9.534;2022-12-18T11:13:49;29.50;;;16.60;;
63320;SDS011;49449;48.800;9.534;2022-12-18T11:16:25;27.55;;;15.40;;
63320;SDS011;49449;48.800;9.534;2022-12-18T11:18:55;27.02;;;15.73;;
63320;SDS011;49449;48.800;9.534;2022-12-18T11:21:40;28.60;;;16.48;;
63320;SDS011;49449;48.800;9.534;2022-12-18T11:24:15;29.15;;;15.52;;
63320;SDS011;49449;48.800;9.534;2022-12-18T11:26:48;26.42;;;15.68;;
63320;SDS011;49449;48.800;9.534;2022-12-18T11:29:22;26.88;;;15.00;;
63320;SDS011;49449;48.800;9.534;2022-12-18T11:32:01;26.77;;;14.50;;
63320;SDS011;49449;48.800;9.534;2022-12-18T11:34:57;27.30;;;16.42;;
63320;SDS011;49449;48.800;9.534;2022-12-18T11:37:29;28.42;;;16.05;;
63320;SDS011;49449;48.800;9.534;2022-12-18T11:39:59;24.05;;;13.73;;
63320;SDS011;49449;48.800;9.534;2022-12-18T11:42:32;27.80;;;15.70;;
63320;SDS011;49449;48.800;9.534;2022-12-18T11:45:21;29.58;;;16.75;;
63320;SDS011;49449;48.800;9.534;2022-12-18T11:47:56;30.33;;;17.52;;
63320;SDS011;49449;48.800;9.534;2022-12-18T11:50:31;29.85;;;15.68;;
63320;SDS011;49449;48.800;9.534;2022-12-18T11:53:13;31.05;;;17.40;;
63320;SDS011;49449;48.800;9.534;2022-12-18T11:55:41;28.80;;;16.35;;
63320;SDS011;49449;48.800;9.534;2022-12-18T11:58:18;29.55;;;16.40;;
63320;SDS011;49449;48.800;9.534;2022-12-18T12:01:00;28.05;;;14.77;;
63320;SDS011;49449;48.800;9.534;2022-12-18T12:06:14;30.35;;;15.85;;
63320;SDS011;49449;48.800;9.534;2022-12-18T12:08:49;25.98;;;14.63;;
63320;SDS011;49449;48.800;9.534;2022-12-18T12:11:35;29.15;;;15.98;;
63320;SDS011;49449;48.800;9.534;2022-12-18T12:14:24;27.38;;;14.85;;
63320;SDS011;49449;48.800;9.534;2022-12-18T12:17:02;27.05;;;15.73;;
63320;SDS011;49449;48.800;9.534;2022-12-18T12:19:36;27.25;;;15.25;;
63320;SDS011;49449;48.800;9.534;2022-12-18T12:22:13;29.88;;;15.50;;
63320;SDS011;49449;48.800;9.534;2022-12-18T12:24:55;33.03;;;18.25;;
63320;SDS011;49449;48.800;9.534;2022-12-18T12:27:34;35.28;;;21.13;;
63320;SDS011;49449;48.800;9.534;2022-12-18T12:30:11;31.17;;;16.63;;
63320;SDS011;49449;48.800;9.534;2022-12-18T12:32:49;23.90;;;14.80;;
63320;SDS011;49449;48.800;9.534;2022-12-18T12:35:29;29.27;;;16.88;;
63320;SDS011;49449;48.800;9.534;2022-12-18T12:38:10;38.85;;;22.20;;
63320;SDS011;49449;48.800;9.534;2022-12-18T12:40:43;32.33;;;18.40;;
63320;SDS011;49449;48.800;9.534;2022-12-18T12:43:22;29.48;;;17.23;;
63320;SDS011;49449;48.800;9.534;2022-12-18T12:45:55;25.52;;;13.88;;
63320;SDS011;49449;48.800;9.534;2022-12-18T12:48:35;25.95;;;13.88;;
63320;SDS011;49449;48.800;9.534;2022-12-18T12:51:11;24.05;;;13.73;;
63320;SDS011;49449;48.800;9.534;2022-12-18T12:53:45;25.00;;;15.27;;
63320;SDS011;49449;48.800;9.534;2022-12-18T12:56:14;25.42;;;16.02;;
63320;SDS011;49449;48.800;9.534;2022-12-18T12:58:50;27.23;;;15.73;;
63320;SDS011;49449;48.800;9.534;2022-12-18T13:01:27;27.42;;;14.55;;
63320;SDS011;49449;48.800;9.534;2022-12-18T13:04:06;27.77;;;15.85;;
63320;SDS011;49449;48.800;9.534;2022-12-18T13:06:43;29.45;;;16.48;;
63320;SDS011;49449;48.800;9.534;2022-12-18T13:09:16;29.65;;;16.83;;
63320;SDS011;49449;48.800;9.534;2022-12-18T13:11:44;25.05;;;14.73;;
63320;SDS011;49449;48.800;9.534;2022-12-18T13:14:31;26.23;;;14.18;;
63320;SDS011;49449;48.800;9.534;2022-12-18T13:20:05;24.58;;;13.45;;
63320;SDS011;49449;48.800;9.534;2022-12-18T13:22:36;29.25;;;15.60;;
63320;SDS011;49449;48.800;9.534;2022-12-18T13:28:05;27.55;;;14.63;;
63320;SDS011;49449;48.800;9.534;2022-12-18T13:30:42;28.30;;;15.00;;
63320;SDS011;49449;48.800;9.534;2022-12-18T13:36:33;23.60;;;13.50;;
63320;SDS011;49449;48.800;9.534;2022-12-18T13:39:15;28.55;;;16.02;;
63320;SDS011;49449;48.800;9.534;2022-12-18T13:45:36;29.90;;;14.73;;
63320;SDS011;49449;48.800;9.534;2022-12-18T13:48:19;26.38;;;13.98;;
63320;SDS011;49449;48.800;9.534;2022-12-18T13:53:38;27.92;;;15.70;;
63320;SDS011;49449;48.800;9.534;2022-12-18T13:56:14;27.63;;;15.50;;
63320;SDS011;49449;48.800;9.534;2022-12-18T13:58:46;25.88;;;15.32;;
63320;SDS011;49449;48.800;9.534;2022-12-18T14:01:32;23.60;;;13.85;;
63320;SDS011;49449;48.800;9.534;2022-12-18T14:04:10;24.42;;;14.25;;
63320;SDS011;49449;48.800;9.534;2022-12-18T14:06:39;26.52;;;13.63;;
63320;SDS011;49449;48.800;9.534;2022-12-18T14:09:13;23.13;;;13.35;;
63320;SDS011;49449;48.800;9.534;2022-12-18T14:11:46;26.23;;;13.50;;
63320;SDS011;49449;48.800;9.534;2022-12-18T14:14:15;22.90;;;13.98;;
63320;SDS011;49449;48.800;9.534;2022-12-18T14:16:45;25.58;;;14.98;;
63320;SDS011;49449;48.800;9.534;2022-12-18T14:19:14;27.80;;;16.27;;
63320;SDS011;49449;48.800;9.534;2022-12-18T14:21:45;25.88;;;14.85;;
63320;SDS011;49449;48.800;9.534;2022-12-18T14:24:15;25.65;;;14.40;;
63320;SDS011;49449;48.800;9.534;2022-12-18T14:26:44;25.67;;;15.07;;
63320;SDS011;49449;48.800;9.534;2022-12-18T14:29:24;29.33;;;16.95;;
63320;SDS011;49449;48.800;9.534;2022-12-18T14:32:11;29.30;;;16.17;;
63320;SDS011;49449;48.800;9.534;2022-12-18T14:34:44;28.23;;;17.40;;
63320;SDS011;49449;48.800;9.534;2022-12-18T14:37:13;30.38;;;16.85;;
63320;SDS011;49449;48.800;9.534;2022-12-18T14:39:52;28.13;;;15.68;;
63320;SDS011;49449;48.800;9.534;2022-12-18T14:42:24;25.30;;;14.65;;
63320;SDS011;49449;48.800;9.534;2022-12-18T14:48:12;27.25;;;14.98;;
63320;SDS011;49449;48.800;9.534;2022-12-18T14:50:43;22.65;;;13.55;;
63320;SDS011;49449;48.800;9.534;2022-12-18T14:53:18;26.80;;;14.85;;
63320;SDS011;49449;48.800;9.534;2022-12-18T14:55:49;31.23;;;17.67;;
63320;SDS011;49449;48.800;9.534;2022-12-18T14:58:17;27.52;;;15.05;;
63320;SDS011;49449;48.800;9.534;2022-12-18T15:00:45;27.08;;;14.93;;
63320;SDS011;49449;48.800;9.534;2022-12-18T15:03:15;26.15;;;14.98;;
63320;SDS011;49449;48.800;9.534;2022-12-18T15:05:46;27.90;;;15.27;;
63320;SDS011;49449;48.800;9.534;2022-12-18T15:08:24;28.80;;;15.73;;
63320;SDS011;49449;48.800;9.534;2022-12-18T15:10:56;25.70;;;14.90;;
63320;SDS011;49449;48.800;9.534;2022-12-18T15:13:24;25.90;;;13.65;;
63320;SDS011;49449;48.800;9.534;2022-12-18T15:15:52;25.35;;;14.07;;
63320;SDS011;49449;48.800;9.534;2022-12-18T15:18:23;26.40;;;16.13;;
63320;SDS011;49449;48.800;9.534;2022-12-18T15:20:57;29.45;;;15.80;;
63320;SDS011;49449;48.800;9.534;2022-12-18T15:23:27;29.23;;;16.95;;
63320;SDS011;49449;48.800;9.534;2022-12-18T15:26:02;27.05;;;14.60;;
63320;SDS011;49449;48.800;9.534;2022-12-18T15:28:34;22.80;;;12.55;;
63320;SDS011;49449;48.800;9.534;2022-12-18T15:31:05;27.77;;;16.17;;